sensor_id;sensor_type;location;lat;lon;timestamp;P1;durP1;ratioP1;P2;durP2;ratioP2
19782;SDS011;10051;40.294;-3.754;2023-10-08T00:01:20;17.98;;;6.90;;
19782;SDS011;10051;40.294;-3.754;2023-10-08T00:03:46;15.10;;;6.90;;
19782;SDS011;10051;40.294;-3.754;2023-10-08T00:06:20;17.25;;;6.78;;
19782;SDS011;10051;40.294;-3.754;2023-10-08T00:08:47;15.15;;;6.57;;
19782;SDS011;10051;40.294;-3.754;2023-10-08T00:11:13;17.25;;;7.20;;
19782;SDS011;10051;40.294;-3.754;2023-10-08T00:13:41;20.10;;;6.80;;
19782;SDS011;10051;40.294;-3.754;2023-10-08T00:16:13;22.27;;;6.63;;
19782;SDS011;10051;40.294;-3.754;2023-10-08T00:18:43;15.43;;;6.60;;
19782;SDS011;10051;40.294;-3.754;2023-10-08T00:21:16;14.38;;;6.05;;
19782;SDS011;10051;40.294;-3.754;2023-10-08T00:23:58;17.65;;;5.70;;
19782;SDS011;10051;40.294;-3.754;2023-10-08T00:26:23;14.25;;;5.65;;
19782;SDS011;10051;40.294;-3.754;2023-10-08T00:28:59;13.70;;;5.38;;
19782;SDS011;10051;40.294;-3.754;2023-10-08T00:31:26;14.70;;;5.55;;
19782;SDS011;10051;40.294;-3.754;2023-10-08T00:33:57;13.60;;;5.30;;
19782;SDS011;10051;40.294;-3.754;2023-10-08T00:36:23;15.82;;;5.10;;
19782;SDS011;10051;40.294;-3.754;2023-10-08T00:38:52;13.48;;;5.18;;
19782;SDS011;10051;40.294;-3.754;2023-10-08T00:41:25;12.90;;;5.13;;
19782;SDS011;10051;40.294;-3.754;2023-10-08T00:43:53;13.05;;;5.05;;
19782;SDS011;10051;40.294;-3.754;2023-10-08T00:46:25;11.25;;;4.90;;
19782;SDS011;10051;40.294;-3.754;2023-10-08T00:49:09;10.82;;;4.50;;
19782;SDS011;10051;40.294;-3.754;2023-10-08T00:51:46;15.70;;;4.03;;
19782;SDS011;10051;40.294;-3.754;2023-10-08T00:54:13;9.52;;;4.28;;
19782;SDS011;10051;40.294;-3.754;2023-10-08T00:56:47;13.13;;;4.47;;
19782;SDS011;10051;40.294;-3.754;2023-10-08T00:59:21;14.52;;;4.32;;
19782;SDS011;10051;40.294;-3.754;2023-10-08T01:01:49;12.57;;;4.35;;
19782;SDS011;10051;40.294;-3.754;2023-10-08T01:04:30;9.98;;;4.35;;
19782;SDS011;10051;40.294;-3.754;2023-10-08T01:06:59;11.80;;;4.35;;
19782;SDS011;10051;40.294;-3.754;2023-10-08T01:09:37;12.68;;;4.53;;
19782;SDS011;10051;40.294;-3.754;2023-10-08T01:12:14;12.27;;;4.53;;
19782;SDS011;10051;40.294;-3.754;2023-10-08T01:14:49;10.73;;;4.25;;
19782;SDS011;10051;40.294;-3.754;2023-10-08T01:17:18;7.13;;;3.85;;
19782;SDS011;10051;40.294;-3.754;2023-10-08T01:19:56;12.68;;;4.10;;
19782;SDS011;10051;40.294;-3.754;2023-10-08T01:22:30;12.93;;;4.25;;
19782;SDS011;10051;40.294;-3.754;2023-10-08T01:24:55;10.90;;;4.03;;
19782;SDS011;10051;40.294;-3.754;2023-10-08T01:27:22;12.15;;;3.97;;
19782;SDS011;10051;40.294;-3.754;2023-10-08T01:29:52;15.95;;;4.20;;
19782;SDS011;10051;40.294;-3.754;2023-10-08T01:32:18;10.20;;;4.03;;
19782;SDS011;10051;40.294;-3.754;2023-10-08T01:34:48;10.02;;;4.20;;
19782;SDS011;10051;40.294;-3.754;2023-10-08T01:37:18;12.43;;;4.22;;
19782;SDS011;10051;40.294;-3.754;2023-10-08T01:39:44;17.20;;;5.05;;
19782;SDS011;10051;40.294;-3.754;2023-10-08T01:42:13;15.98;;;4.20;;
19782;SDS011;10051;40.294;-3.754;2023-10-08T01:44:48;12.57;;;4.40;;
19782;SDS011;10051;40.294;-3.754;2023-10-08T01:47:16;14.13;;;4.38;;
19782;SDS011;10051;40.294;-3.754;2023-10-08T01:49:42;21.85;;;4.97;;
19782;SDS011;10051;40.294;-3.754;2023-10-08T01:52:11;12.73;;;4.65;;
19782;SDS011;10051;40.294;-3.754;2023-10-08T01:54:46;14.07;;;4.40;;
19782;SDS011;10051;40.294;-3.754;2023-10-08T01:57:13;12.75;;;4.70;;
19782;SDS011;10051;40.294;-3.754;2023-10-08T01:59:39;12.90;;;4.53;;
19782;SDS011;10051;40.294;-3.754;2023-10-08T02:02:06;13.23;;;4.82;;
19782;SDS011;10051;40.294;-3.754;2023-10-08T02:04:35;12.82;;;4.90;;
19782;SDS011;10051;40.294;-3.754;2023-10-08T02:07:01;11.48;;;4.90;;
19782;SDS011;10051;40.294;-3.754;2023-10-08T02:09:29;14.38;;;4.82;;
19782;SDS011;10051;40.294;-3.754;2023-10-08T02:11:55;11.10;;;4.82;;
19782;SDS011;10051;40.294;-3.754;2023-10-08T02:14:22;19.15;;;5.32;;
19782;SDS011;10051;40.294;-3.754;2023-10-08T02:16:48;13.15;;;4.95;;
19782;SDS011;10051;40.294;-3.754;2023-10-08T02:19:14;15.05;;;5.20;;
19782;SDS011;10051;40.294;-3.754;2023-10-08T02:21:43;17.23;;;5.40;;
19782;SDS011;10051;40.294;-3.754;2023-10-08T02:24:11;15.05;;;5.15;;
19782;SDS011;10051;40.294;-3.754;2023-10-08T02:26:38;10.55;;;4.68;;
19782;SDS011;10051;40.294;-3.754;2023-10-08T02:29:04;10.88;;;5.00;;
19782;SDS011;10051;40.294;-3.754;2023-10-08T02:31:37;10.05;;;4.60;;
19782;SDS011;10051;40.294;-3.754;2023-10-08T02:34:05;11.93;;;4.55;;
19782;SDS011;10051;40.294;-3.754;2023-10-08T02:36:33;13.00;;;4.60;;
19782;SDS011;10051;40.294;-3.754;2023-10-08T02:39:03;12.02;;;4.63;;
19782;SDS011;10051;40.294;-3.754;2023-10-08T02:41:51;13.20;;;4.70;;
19782;SDS011;10051;40.294;-3.754;2023-10-08T02:44:19;13.70;;;4.72;;
19782;SDS011;10051;40.294;-3.754;2023-10-08T02:46:47;18.40;;;5.50;;
19782;SDS011;10051;40.294;-3.754;2023-10-08T02:49:17;12.45;;;4.95;;
19782;SDS011;10051;40.294;-3.754;2023-10-08T02:51:56;12.13;;;5.15;;
19782;SDS011;10051;40.294;-3.754;2023-10-08T02:54:23;15.05;;;4.95;;
19782;SDS011;10051;40.294;-3.754;2023-10-08T02:56:56;13.77;;;4.95;;
19782;SDS011;10051;40.294;-3.754;2023-10-08T02:59:29;15.23;;;4.93;;
19782;SDS011;10051;40.294;-3.754;2023-10-08T03:02:09;11.75;;;5.10;;
19782;SDS011;10051;40.294;-3.754;2023-10-08T03:04:43;14.60;;;5.10;;
19782;SDS011;10051;40.294;-3.754;2023-10-08T03:07:11;18.95;;;5.50;;
19782;SDS011;10051;40.294;-3.754;2023-10-08T03:09:46;15.27;;;5.00;;
19782;SDS011;10051;40.294;-3.754;2023-10-08T03:12:16;12.65;;;5.05;;
19782;SDS011;10051;40.294;-3.754;2023-10-08T03:14:43;11.63;;;4.80;;
19782;SDS011;10051;40.294;-3.754;2023-10-08T03:17:29;12.30;;;5.25;;
19782;SDS011;10051;40.294;-3.754;2023-10-08T03:19:55;12.20;;;4.85;;
19782;SDS011;10051;40.294;-3.754;2023-10-08T03:22:47;12.30;;;4.80;;
19782;SDS011;10051;40.294;-3.754;2023-10-08T03:25:13;11.80;;;4.45;;
19782;SDS011;10051;40.294;-3.754;2023-10-08T03:27:45;12.13;;;4.97;;
19782;SDS011;10051;40.294;-3.754;2023-10-08T03:30:13;11.35;;;4.90;;
19782;SDS011;10051;40.294;-3.754;2023-10-08T03:32:44;12.63;;;4.40;;
19782;SDS011;10051;40.294;-3.754;2023-10-08T03:35:10;12.75;;;4.70;;
19782;SDS011;10051;40.294;-3.754;2023-10-08T03:37:37;9.88;;;4.70;;
19782;SDS011;10051;40.294;-3.754;2023-10-08T03:40:10;11.48;;;4.45;;
19782;SDS011;10051;40.294;-3.754;2023-10-08T03:43:07;11.10;;;4.53;;
19782;SDS011;10051;40.294;-3.754;2023-10-08T03:45:45;8.63;;;3.95;;
19782;SDS011;10051;40.294;-3.754;2023-10-08T03:48:19;7.40;;;3.85;;
19782;SDS011;10051;40.294;-3.754;2023-10-08T03:50:48;9.73;;;3.97;;
19782;SDS011;10051;40.294;-3.754;2023-10-08T03:53:22;11.48;;;3.90;;
19782;SDS011;10051;40.294;-3.754;2023-10-08T03:55:48;10.15;;;4.10;;
19782;SDS011;10051;40.294;-3.754;2023-10-08T03:58:17;10.95;;;4.07;;
19782;SDS011;10051;40.294;-3.754;2023-10-08T04:00:56;11.60;;;4.00;;
19782;SDS011;10051;40.294;-3.754;2023-10-08T04:03:34;12.20;;;4.22;;
19782;SDS011;10051;40.294;-3.754;2023-10-08T04:06:16;14.30;;;4.40;;
19782;SDS011;10051;40.294;-3.754;2023-10-08T04:08:41;10.43;;;4.63;;
19782;SDS011;10051;40.294;-3.754;2023-10-08T04:11:23;12.85;;;4.80;;
19782;SDS011;10051;40.294;-3.754;2023-10-08T04:14:01;16.42;;;5.13;;
19782;SDS011;10051;40.294;-3.754;2023-10-08T04:16:28;12.80;;;4.85;;
19782;SDS011;10051;40.294;-3.754;2023-10-08T04:18:54;10.45;;;4.60;;
19782;SDS011;10051;40.294;-3.754;2023-10-08T04:21:28;9.40;;;4.82;;
19782;SDS011;10051;40.294;-3.754;2023-10-08T04:23:54;14.98;;;5.47;;
19782;SDS011;10051;40.294;-3.754;2023-10-08T04:26:23;19.70;;;7.53;;
19782;SDS011;10051;40.294;-3.754;2023-10-08T04:28:55;18.95;;;7.85;;
19782;SDS011;10051;40.294;-3.754;2023-10-08T04:31:28;19.55;;;8.45;;
19782;SDS011;10051;40.294;-3.754;2023-10-08T04:33:55;18.13;;;7.75;;
19782;SDS011;10051;40.294;-3.754;2023-10-08T04:36:25;22.73;;;7.88;;
19782;SDS011;10051;40.294;-3.754;2023-10-08T04:38:51;13.77;;;6.40;;
19782;SDS011;10051;40.294;-3.754;2023-10-08T04:41:20;13.07;;;5.07;;
19782;SDS011;10051;40.294;-3.754;2023-10-08T04:43:52;16.98;;;5.30;;
19782;SDS011;10051;40.294;-3.754;2023-10-08T04:46:20;13.50;;;5.40;;
19782;SDS011;10051;40.294;-3.754;2023-10-08T04:49:04;12.55;;;4.80;;
19782;SDS011;10051;40.294;-3.754;2023-10-08T04:51:33;7.00;;;4.20;;
19782;SDS011;10051;40.294;-3.754;2023-10-08T04:54:11;9.82;;;4.35;;
19782;SDS011;10051;40.294;-3.754;2023-10-08T04:56:43;7.95;;;3.80;;
19782;SDS011;10051;40.294;-3.754;2023-10-08T04:59:09;13.15;;;4.10;;
19782;SDS011;10051;40.294;-3.754;2023-10-08T05:01:36;10.40;;;4.20;;
19782;SDS011;10051;40.294;-3.754;2023-10-08T05:04:34;11.30;;;4.13;;
19782;SDS011;10051;40.294;-3.754;2023-10-08T05:07:12;12.32;;;3.90;;
19782;SDS011;10051;40.294;-3.754;2023-10-08T05:10:05;9.32;;;3.97;;
19782;SDS011;10051;40.294;-3.754;2023-10-08T05:12:32;7.30;;;3.78;;
19782;SDS011;10051;40.294;-3.754;2023-10-08T05:14:58;8.80;;;4.30;;
19782;SDS011;10051;40.294;-3.754;2023-10-08T05:17:42;13.23;;;4.32;;
19782;SDS011;10051;40.294;-3.754;2023-10-08T05:20:18;11.98;;;4.28;;
19782;SDS011;10051;40.294;-3.754;2023-10-08T05:22:55;11.48;;;4.30;;
19782;SDS011;10051;40.294;-3.754;2023-10-08T05:25:31;11.02;;;4.43;;
19782;SDS011;10051;40.294;-3.754;2023-10-08T05:28:19;10.02;;;3.90;;
19782;SDS011;10051;40.294;-3.754;2023-10-08T05:30:49;10.40;;;4.05;;
19782;SDS011;10051;40.294;-3.754;2023-10-08T05:33:20;8.00;;;3.72;;
19782;SDS011;10051;40.294;-3.754;2023-10-08T05:35:49;8.75;;;4.22;;
19782;SDS011;10051;40.294;-3.754;2023-10-08T05:38:20;10.88;;;3.85;;
19782;SDS011;10051;40.294;-3.754;2023-10-08T05:40:48;8.48;;;3.67;;
19782;SDS011;10051;40.294;-3.754;2023-10-08T05:43:30;9.52;;;4.07;;
19782;SDS011;10051;40.294;-3.754;2023-10-08T05:46:14;9.15;;;3.72;;
19782;SDS011;10051;40.294;-3.754;2023-10-08T05:49:03;13.95;;;3.80;;
19782;SDS011;10051;40.294;-3.754;2023-10-08T05:51:33;8.75;;;3.70;;
19782;SDS011;10051;40.294;-3.754;2023-10-08T05:56:52;16.40;;;3.90;;
19782;SDS011;10051;40.294;-3.754;2023-10-08T05:59:46;10.00;;;3.88;;
19782;SDS011;10051;40.294;-3.754;2023-10-08T06:02:24;10.60;;;3.85;;
19782;SDS011;10051;40.294;-3.754;2023-10-08T06:05:04;10.98;;;3.90;;
19782;SDS011;10051;40.294;-3.754;2023-10-08T06:07:46;9.32;;;4.20;;
19782;SDS011;10051;40.294;-3.754;2023-10-08T06:10:15;7.97;;;3.80;;
19782;SDS011;10051;40.294;-3.754;2023-10-08T06:15:46;10.38;;;4.28;;
19782;SDS011;10051;40.294;-3.754;2023-10-08T06:18:35;8.32;;;4.57;;
19782;SDS011;10051;40.294;-3.754;2023-10-08T06:21:03;8.57;;;4.50;;
19782;SDS011;10051;40.294;-3.754;2023-10-08T06:23:40;12.73;;;4.22;;
19782;SDS011;10051;40.294;-3.754;2023-10-08T06:26:07;10.38;;;3.85;;
19782;SDS011;10051;40.294;-3.754;2023-10-08T06:28:36;9.98;;;3.85;;
19782;SDS011;10051;40.294;-3.754;2023-10-08T06:31:06;12.23;;;3.90;;
19782;SDS011;10051;40.294;-3.754;2023-10-08T06:33:37;8.18;;;3.47;;
19782;SDS011;10051;40.294;-3.754;2023-10-08T06:36:03;12.65;;;3.70;;
19782;SDS011;10051;40.294;-3.754;2023-10-08T06:38:41;10.38;;;3.83;;
19782;SDS011;10051;40.294;-3.754;2023-10-08T06:41:07;9.82;;;3.60;;
19782;SDS011;10051;40.294;-3.754;2023-10-08T06:43:35;13.13;;;3.95;;
19782;SDS011;10051;40.294;-3.754;2023-10-08T06:46:04;8.75;;;3.88;;
19782;SDS011;10051;40.294;-3.754;2023-10-08T06:48:38;8.30;;;3.90;;
19782;SDS011;10051;40.294;-3.754;2023-10-08T06:51:08;10.68;;;3.90;;
19782;SDS011;10051;40.294;-3.754;2023-10-08T06:53:44;7.93;;;3.50;;
19782;SDS011;10051;40.294;-3.754;2023-10-08T06:56:12;8.05;;;3.80;;
19782;SDS011;10051;40.294;-3.754;2023-10-08T06:58:39;11.25;;;3.95;;
19782;SDS011;10051;40.294;-3.754;2023-10-08T07:01:10;11.30;;;3.88;;
19782;SDS011;10051;40.294;-3.754;2023-10-08T07:03:38;12.10;;;3.95;;
19782;SDS011;10051;40.294;-3.754;2023-10-08T07:06:04;13.35;;;3.60;;
19782;SDS011;10051;40.294;-3.754;2023-10-08T07:08:42;10.75;;;4.05;;
19782;SDS011;10051;40.294;-3.754;2023-10-08T07:11:11;8.40;;;4.18;;
19782;SDS011;10051;40.294;-3.754;2023-10-08T07:13:38;9.98;;;4.07;;
19782;SDS011;10051;40.294;-3.754;2023-10-08T07:16:05;8.95;;;3.75;;
19782;SDS011;10051;40.294;-3.754;2023-10-08T07:18:33;9.63;;;4.18;;
19782;SDS011;10051;40.294;-3.754;2023-10-08T07:20:59;7.32;;;4.13;;
19782;SDS011;10051;40.294;-3.754;2023-10-08T07:23:30;10.38;;;4.20;;
19782;SDS011;10051;40.294;-3.754;2023-10-08T07:26:02;11.55;;;3.90;;
19782;SDS011;10051;40.294;-3.754;2023-10-08T07:28:38;10.50;;;3.70;;
19782;SDS011;10051;40.294;-3.754;2023-10-08T07:31:06;9.55;;;4.00;;
19782;SDS011;10051;40.294;-3.754;2023-10-08T07:33:40;8.75;;;3.65;;
19782;SDS011;10051;40.294;-3.754;2023-10-08T07:36:11;9.85;;;3.80;;
19782;SDS011;10051;40.294;-3.754;2023-10-08T07:38:40;9.70;;;4.47;;
19782;SDS011;10051;40.294;-3.754;2023-10-08T07:41:09;10.95;;;4.07;;
19782;SDS011;10051;40.294;-3.754;2023-10-08T07:43:40;11.07;;;4.43;;
19782;SDS011;10051;40.294;-3.754;2023-10-08T07:46:09;9.98;;;4.28;;
19782;SDS011;10051;40.294;-3.754;2023-10-08T07:48:40;8.05;;;4.00;;
19782;SDS011;10051;40.294;-3.754;2023-10-08T07:51:08;11.02;;;4.10;;
19782;SDS011;10051;40.294;-3.754;2023-10-08T07:53:34;9.05;;;3.63;;
19782;SDS011;10051;40.294;-3.754;2023-10-08T07:56:06;10.25;;;3.80;;
19782;SDS011;10051;40.294;-3.754;2023-10-08T07:58:35;10.55;;;3.60;;
19782;SDS011;10051;40.294;-3.754;2023-10-08T08:01:05;9.75;;;3.95;;
19782;SDS011;10051;40.294;-3.754;2023-10-08T08:03:32;9.93;;;3.80;;
19782;SDS011;10051;40.294;-3.754;2023-10-08T08:06:08;10.13;;;3.92;;
19782;SDS011;10051;40.294;-3.754;2023-10-08T08:08:38;8.80;;;3.63;;
19782;SDS011;10051;40.294;-3.754;2023-10-08T08:11:04;7.78;;;3.60;;
19782;SDS011;10051;40.294;-3.754;2023-10-08T08:13:37;9.25;;;3.88;;
19782;SDS011;10051;40.294;-3.754;2023-10-08T08:16:04;10.15;;;3.92;;
19782;SDS011;10051;40.294;-3.754;2023-10-08T08:18:42;14.18;;;4.30;;
19782;SDS011;10051;40.294;-3.754;2023-10-08T08:21:09;14.05;;;4.15;;
19782;SDS011;10051;40.294;-3.754;2023-10-08T08:23:49;15.77;;;3.85;;
19782;SDS011;10051;40.294;-3.754;2023-10-08T08:26:18;8.15;;;3.80;;
19782;SDS011;10051;40.294;-3.754;2023-10-08T08:28:55;11.65;;;3.80;;
19782;SDS011;10051;40.294;-3.754;2023-10-08T08:31:22;7.00;;;3.67;;
19782;SDS011;10051;40.294;-3.754;2023-10-08T08:33:50;8.82;;;3.85;;
19782;SDS011;10051;40.294;-3.754;2023-10-08T08:36:21;14.07;;;4.43;;
19782;SDS011;10051;40.294;-3.754;2023-10-08T08:38:48;16.13;;;4.50;;
19782;SDS011;10051;40.294;-3.754;2023-10-08T08:41:17;13.60;;;4.45;;
19782;SDS011;10051;40.294;-3.754;2023-10-08T08:43:49;9.65;;;4.38;;
19782;SDS011;10051;40.294;-3.754;2023-10-08T08:46:24;10.93;;;4.15;;
19782;SDS011;10051;40.294;-3.754;2023-10-08T08:49:01;10.23;;;4.20;;
19782;SDS011;10051;40.294;-3.754;2023-10-08T08:51:33;12.30;;;4.43;;
19782;SDS011;10051;40.294;-3.754;2023-10-08T08:54:03;13.77;;;4.50;;
19782;SDS011;10051;40.294;-3.754;2023-10-08T08:56:42;9.85;;;4.35;;
19782;SDS011;10051;40.294;-3.754;2023-10-08T08:59:09;9.20;;;4.25;;
19782;SDS011;10051;40.294;-3.754;2023-10-08T09:01:37;11.98;;;4.22;;
19782;SDS011;10051;40.294;-3.754;2023-10-08T09:04:04;13.00;;;4.13;;
19782;SDS011;10051;40.294;-3.754;2023-10-08T09:06:33;11.00;;;4.60;;
19782;SDS011;10051;40.294;-3.754;2023-10-08T09:09:00;12.27;;;4.47;;
19782;SDS011;10051;40.294;-3.754;2023-10-08T09:11:59;12.07;;;4.47;;
19782;SDS011;10051;40.294;-3.754;2023-10-08T09:14:25;9.02;;;4.07;;
19782;SDS011;10051;40.294;-3.754;2023-10-08T09:16:55;10.55;;;4.10;;
19782;SDS011;10051;40.294;-3.754;2023-10-08T09:19:22;9.18;;;3.65;;
19782;SDS011;10051;40.294;-3.754;2023-10-08T09:24:29;11.48;;;3.80;;
19782;SDS011;10051;40.294;-3.754;2023-10-08T09:26:56;13.50;;;4.18;;
19782;SDS011;10051;40.294;-3.754;2023-10-08T09:29:23;9.45;;;4.20;;
19782;SDS011;10051;40.294;-3.754;2023-10-08T09:31:53;10.88;;;4.18;;
19782;SDS011;10051;40.294;-3.754;2023-10-08T09:34:21;9.52;;;4.15;;
19782;SDS011;10051;40.294;-3.754;2023-10-08T09:36:51;8.85;;;3.97;;
19782;SDS011;10051;40.294;-3.754;2023-10-08T09:39:18;11.10;;;3.97;;
19782;SDS011;10051;40.294;-3.754;2023-10-08T09:41:55;14.10;;;4.32;;
19782;SDS011;10051;40.294;-3.754;2023-10-08T09:44:22;13.43;;;3.83;;
19782;SDS011;10051;40.294;-3.754;2023-10-08T09:46:52;6.93;;;3.78;;
19782;SDS011;10051;40.294;-3.754;2023-10-08T09:49:24;8.95;;;3.80;;
19782;SDS011;10051;40.294;-3.754;2023-10-08T09:51:57;7.95;;;3.50;;
19782;SDS011;10051;40.294;-3.754;2023-10-08T09:54:30;12.05;;;3.70;;
19782;SDS011;10051;40.294;-3.754;2023-10-08T09:57:05;17.27;;;4.00;;
19782;SDS011;10051;40.294;-3.754;2023-10-08T09:59:32;10.00;;;3.70;;
19782;SDS011;10051;40.294;-3.754;2023-10-08T10:01:59;14.55;;;3.92;;
19782;SDS011;10051;40.294;-3.754;2023-10-08T10:04:29;9.30;;;3.65;;
19782;SDS011;10051;40.294;-3.754;2023-10-08T10:06:57;9.77;;;3.72;;
19782;SDS011;10051;40.294;-3.754;2023-10-08T10:09:24;11.52;;;3.70;;
19782;SDS011;10051;40.294;-3.754;2023-10-08T10:11:53;10.25;;;3.78;;
19782;SDS011;10051;40.294;-3.754;2023-10-08T10:14:23;11.85;;;3.60;;
19782;SDS011;10051;40.294;-3.754;2023-10-08T10:17:08;9.77;;;3.58;;
19782;SDS011;10051;40.294;-3.754;2023-10-08T10:22:30;12.43;;;3.70;;
19782;SDS011;10051;40.294;-3.754;2023-10-08T10:24:58;7.65;;;3.63;;
19782;SDS011;10051;40.294;-3.754;2023-10-08T10:27:25;18.88;;;3.95;;
19782;SDS011;10051;40.294;-3.754;2023-10-08T10:29:51;10.25;;;3.90;;
19782;SDS011;10051;40.294;-3.754;2023-10-08T10:32:32;8.65;;;3.40;;
19782;SDS011;10051;40.294;-3.754;2023-10-08T10:34:59;9.20;;;3.90;;
19782;SDS011;10051;40.294;-3.754;2023-10-08T10:37:28;9.23;;;3.72;;
19782;SDS011;10051;40.294;-3.754;2023-10-08T10:40:06;10.40;;;3.80;;
19782;SDS011;10051;40.294;-3.754;2023-10-08T10:42:39;8.95;;;3.60;;
19782;SDS011;10051;40.294;-3.754;2023-10-08T10:45:14;9.82;;;4.00;;
19782;SDS011;10051;40.294;-3.754;2023-10-08T10:48:00;9.77;;;3.70;;
19782;SDS011;10051;40.294;-3.754;2023-10-08T10:50:40;8.75;;;3.10;;
19782;SDS011;10051;40.294;-3.754;2023-10-08T10:53:25;9.27;;;3.55;;
19782;SDS011;10051;40.294;-3.754;2023-10-08T10:55:55;8.63;;;3.42;;
19782;SDS011;10051;40.294;-3.754;2023-10-08T10:58:34;12.80;;;3.80;;
19782;SDS011;10051;40.294;-3.754;2023-10-08T11:01:06;7.85;;;3.40;;
19782;SDS011;10051;40.294;-3.754;2023-10-08T11:03:51;6.97;;;3.40;;
19782;SDS011;10051;40.294;-3.754;2023-10-08T11:06:17;9.80;;;3.33;;
19782;SDS011;10051;40.294;-3.754;2023-10-08T11:08:50;8.73;;;3.53;;
19782;SDS011;10051;40.294;-3.754;2023-10-08T11:11:35;9.38;;;3.42;;
19782;SDS011;10051;40.294;-3.754;2023-10-08T11:14:01;13.65;;;4.18;;
19782;SDS011;10051;40.294;-3.754;2023-10-08T11:16:31;10.60;;;3.83;;
19782;SDS011;10051;40.294;-3.754;2023-10-08T11:18:57;8.10;;;3.70;;
19782;SDS011;10051;40.294;-3.754;2023-10-08T11:21:26;10.35;;;3.70;;
19782;SDS011;10051;40.294;-3.754;2023-10-08T11:23:56;10.02;;;3.45;;
19782;SDS011;10051;40.294;-3.754;2023-10-08T11:26:24;11.00;;;3.78;;
19782;SDS011;10051;40.294;-3.754;2023-10-08T11:29:04;14.75;;;5.90;;
19782;SDS011;10051;40.294;-3.754;2023-10-08T11:31:31;11.25;;;4.07;;
19782;SDS011;10051;40.294;-3.754;2023-10-08T11:34:00;10.43;;;3.70;;
19782;SDS011;10051;40.294;-3.754;2023-10-08T11:36:33;11.23;;;3.80;;
19782;SDS011;10051;40.294;-3.754;2023-10-08T11:39:08;12.15;;;3.80;;
19782;SDS011;10051;40.294;-3.754;2023-10-08T11:41:38;11.45;;;4.93;;
19782;SDS011;10051;40.294;-3.754;2023-10-08T11:44:15;16.75;;;7.28;;
19782;SDS011;10051;40.294;-3.754;2023-10-08T11:46:44;11.63;;;3.92;;
19782;SDS011;10051;40.294;-3.754;2023-10-08T11:49:12;13.32;;;3.67;;
19782;SDS011;10051;40.294;-3.754;2023-10-08T11:51:43;10.68;;;4.45;;
19782;SDS011;10051;40.294;-3.754;2023-10-08T11:54:10;10.80;;;4.25;;
19782;SDS011;10051;40.294;-3.754;2023-10-08T11:56:39;11.75;;;4.07;;
19782;SDS011;10051;40.294;-3.754;2023-10-08T11:59:05;9.23;;;3.72;;
19782;SDS011;10051;40.294;-3.754;2023-10-08T12:01:34;12.13;;;3.55;;
19782;SDS011;10051;40.294;-3.754;2023-10-08T12:04:02;10.07;;;3.65;;
19782;SDS011;10051;40.294;-3.754;2023-10-08T12:06:28;12.52;;;3.63;;
19782;SDS011;10051;40.294;-3.754;2023-10-08T12:08:58;10.02;;;3.63;;
19782;SDS011;10051;40.294;-3.754;2023-10-08T12:11:36;11.02;;;3.80;;
19782;SDS011;10051;40.294;-3.754;2023-10-08T12:14:03;10.57;;;3.65;;
19782;SDS011;10051;40.294;-3.754;2023-10-08T12:16:29;9.75;;;3.45;;
19782;SDS011;10051;40.294;-3.754;2023-10-08T12:18:55;12.77;;;4.07;;
19782;SDS011;10051;40.294;-3.754;2023-10-08T12:21:27;12.93;;;3.95;;
19782;SDS011;10051;40.294;-3.754;2023-10-08T12:23:57;11.30;;;3.85;;
19782;SDS011;10051;40.294;-3.754;2023-10-08T12:26:23;9.60;;;3.85;;
19782;SDS011;10051;40.294;-3.754;2023-10-08T12:28:49;10.07;;;3.58;;
19782;SDS011;10051;40.294;-3.754;2023-10-08T12:31:16;7.50;;;3.40;;
19782;SDS011;10051;40.294;-3.754;2023-10-08T12:33:47;9.30;;;3.28;;
19782;SDS011;10051;40.294;-3.754;2023-10-08T12:36:14;8.55;;;3.30;;
19782;SDS011;10051;40.294;-3.754;2023-10-08T12:38:42;11.25;;;3.58;;
19782;SDS011;10051;40.294;-3.754;2023-10-08T12:41:11;9.43;;;3.50;;
19782;SDS011;10051;40.294;-3.754;2023-10-08T12:43:37;12.27;;;4.07;;
19782;SDS011;10051;40.294;-3.754;2023-10-08T12:46:04;12.32;;;4.72;;
19782;SDS011;10051;40.294;-3.754;2023-10-08T12:48:35;12.32;;;4.10;;
19782;SDS011;10051;40.294;-3.754;2023-10-08T12:51:02;9.45;;;3.90;;
19782;SDS011;10051;40.294;-3.754;2023-10-08T12:53:30;8.75;;;3.15;;
19782;SDS011;10051;40.294;-3.754;2023-10-08T12:56:02;9.40;;;3.13;;
19782;SDS011;10051;40.294;-3.754;2023-10-08T12:58:35;10.73;;;3.38;;
19782;SDS011;10051;40.294;-3.754;2023-10-08T13:01:12;10.48;;;3.47;;
19782;SDS011;10051;40.294;-3.754;2023-10-08T13:03:42;6.28;;;3.20;;
19782;SDS011;10051;40.294;-3.754;2023-10-08T13:06:16;10.55;;;3.00;;
19782;SDS011;10051;40.294;-3.754;2023-10-08T13:08:56;7.57;;;2.88;;
19782;SDS011;10051;40.294;-3.754;2023-10-08T13:11:23;9.82;;;3.10;;
19782;SDS011;10051;40.294;-3.754;2023-10-08T13:13:51;9.70;;;3.30;;
19782;SDS011;10051;40.294;-3.754;2023-10-08T13:16:23;10.00;;;3.17;;
19782;SDS011;10051;40.294;-3.754;2023-10-08T13:18:50;6.88;;;2.92;;
19782;SDS011;10051;40.294;-3.754;2023-10-08T13:21:17;7.63;;;3.17;;
19782;SDS011;10051;40.294;-3.754;2023-10-08T13:23:50;8.25;;;3.25;;
19782;SDS011;10051;40.294;-3.754;2023-10-08T13:26:18;9.05;;;3.17;;
19782;SDS011;10051;40.294;-3.754;2023-10-08T13:28:49;8.63;;;3.38;;
19782;SDS011;10051;40.294;-3.754;2023-10-08T13:31:15;8.98;;;3.40;;
19782;SDS011;10051;40.294;-3.754;2023-10-08T13:33:42;12.73;;;3.58;;
19782;SDS011;10051;40.294;-3.754;2023-10-08T13:36:12;6.68;;;3.08;;
19782;SDS011;10051;40.294;-3.754;2023-10-08T13:38:39;10.23;;;3.30;;
19782;SDS011;10051;40.294;-3.754;2023-10-08T13:41:10;8.18;;;3.55;;
19782;SDS011;10051;40.294;-3.754;2023-10-08T13:43:47;10.15;;;3.00;;
19782;SDS011;10051;40.294;-3.754;2023-10-08T13:46:17;7.95;;;3.25;;
19782;SDS011;10051;40.294;-3.754;2023-10-08T13:48:48;8.02;;;3.30;;
19782;SDS011;10051;40.294;-3.754;2023-10-08T13:51:15;14.00;;;3.40;;
19782;SDS011;10051;40.294;-3.754;2023-10-08T13:53:59;10.50;;;3.08;;
19782;SDS011;10051;40.294;-3.754;2023-10-08T13:56:25;12.90;;;3.80;;
19782;SDS011;10051;40.294;-3.754;2023-10-08T13:58:56;10.25;;;3.35;;
19782;SDS011;10051;40.294;-3.754;2023-10-08T14:01:44;7.47;;;3.28;;
19782;SDS011;10051;40.294;-3.754;2023-10-08T14:04:16;9.00;;;3.53;;
19782;SDS011;10051;40.294;-3.754;2023-10-08T14:06:45;12.55;;;3.33;;
19782;SDS011;10051;40.294;-3.754;2023-10-08T14:09:17;10.57;;;3.30;;
19782;SDS011;10051;40.294;-3.754;2023-10-08T14:11:56;9.55;;;3.05;;
19782;SDS011;10051;40.294;-3.754;2023-10-08T14:14:21;8.10;;;3.40;;
19782;SDS011;10051;40.294;-3.754;2023-10-08T14:16:49;10.68;;;3.22;;
19782;SDS011;10051;40.294;-3.754;2023-10-08T14:19:19;12.93;;;3.13;;
19782;SDS011;10051;40.294;-3.754;2023-10-08T14:21:53;8.25;;;3.20;;
19782;SDS011;10051;40.294;-3.754;2023-10-08T14:24:25;7.30;;;3.28;;
19782;SDS011;10051;40.294;-3.754;2023-10-08T14:26:54;7.47;;;2.80;;
19782;SDS011;10051;40.294;-3.754;2023-10-08T14:29:22;7.07;;;2.97;;
19782;SDS011;10051;40.294;-3.754;2023-10-08T14:31:52;7.22;;;2.80;;
19782;SDS011;10051;40.294;-3.754;2023-10-08T14:34:21;8.23;;;2.92;;
19782;SDS011;10051;40.294;-3.754;2023-10-08T14:37:08;5.97;;;3.00;;
19782;SDS011;10051;40.294;-3.754;2023-10-08T14:39:52;10.25;;;4.40;;
19782;SDS011;10051;40.294;-3.754;2023-10-08T14:42:36;9.50;;;3.40;;
19782;SDS011;10051;40.294;-3.754;2023-10-08T14:45:25;6.85;;;2.90;;
19782;SDS011;10051;40.294;-3.754;2023-10-08T14:47:52;12.55;;;2.88;;
19782;SDS011;10051;40.294;-3.754;2023-10-08T14:50:19;9.48;;;2.90;;
19782;SDS011;10051;40.294;-3.754;2023-10-08T14:52:47;9.98;;;3.05;;
19782;SDS011;10051;40.294;-3.754;2023-10-08T14:55:13;8.95;;;2.90;;
19782;SDS011;10051;40.294;-3.754;2023-10-08T14:57:39;9.70;;;3.00;;
19782;SDS011;10051;40.294;-3.754;2023-10-08T15:00:07;7.82;;;3.10;;
19782;SDS011;10051;40.294;-3.754;2023-10-08T15:02:34;6.82;;;2.78;;